Time;durP1;ratioP1;P1;durP2;ratioP2;P2;SDS_P1;SDS_P2;PMS_P1;PMS_P2;Temp;Humidity;BMP_temperature;BMP_pressure;BME280_temperature;BME280_humidity;BME280_pressure;Samples;Min_cycle;Max_cycle;Signal;HPM_P1;HPM_P2
2023/09/20 00:02:13;;;;;;;3.00;2.80;;;;;;;11.39;100.00;96935.13;4936075;28;20209;-62
2023/09/20 00:04:42;;;;;;;3.27;3.07;;;;;;;11.37;100.00;96937.16;4932361;28;20290;-62
2023/09/20 00:07:11;;;;;;;3.70;3.30;;;;;;;11.31;100.00;96928.13;4938107;28;20770;-63
2023/09/20 00:09:40;;;;;;;3.60;3.40;;;;;;;11.33;100.00;96933.25;4935773;28;20294;-62
2023/09/20 00:12:08;;;;;;;3.47;3.27;;;;;;;11.27;100.00;96930.38;4936668;28;20215;-63
2023/09/20 00:14:35;;;;;;;3.63;3.30;;;;;;;11.23;100.00;96934.44;4931167;28;20968;-61
2023/09/20 00:17:04;;;;;;;3.30;3.10;;;;;;;11.20;100.00;96932.16;4937415;28;20317;-62
2023/09/20 00:19:31;;;;;;;3.50;3.30;;;;;;;11.18;100.00;96930.72;4933530;28;20226;-62
2023/09/20 00:21:59;;;;;;;3.40;3.10;;;;;;;11.11;100.00;96926.19;4938410;28;20215;-62
2023/09/20 00:24:28;;;;;;;3.63;3.33;;;;;;;11.05;100.00;96924.31;4931596;28;20293;-62
2023/09/20 00:26:55;;;;;;;3.27;3.07;;;;;;;11.07;100.00;96927.59;4936322;28;20282;-61
2023/09/20 00:29:24;;;;;;;2.90;2.77;;;;;;;11.05;100.00;96926.13;4852976;28;21092;-58
2023/09/20 00:31:53;;;;;;;3.83;3.50;;;;;;;11.02;100.00;96924.72;4939150;28;20322;-62
2023/09/20 00:34:20;;;;;;;4.37;3.70;;;;;;;11.02;100.00;96923.88;4932096;28;20259;-63
2023/09/20 00:36:48;;;;;;;3.40;3.10;;;;;;;11.02;100.00;96924.72;4938963;28;20231;-61
2023/09/20 00:39:17;;;;;;;3.33;3.13;;;;;;;11.03;100.00;96933.47;4936471;28;20312;-63
2023/09/20 00:41:48;;;;;;;3.30;3.10;;;;;;;10.96;100.00;96926.28;4939025;28;20273;-62
2023/09/20 00:44:15;;;;;;;3.40;3.20;;;;;;;10.92;100.00;96919.72;4938666;28;20214;-63
2023/09/20 00:46:44;;;;;;;4.10;3.70;;;;;;;10.85;100.00;96914.38;4942900;28;20223;-62
2023/09/20 00:49:12;;;;;;;3.37;3.17;;;;;;;10.84;100.00;96920.69;4937881;28;20207;-62
2023/09/20 00:51:40;;;;;;;3.97;3.27;;;;;;;10.83;100.00;96912.94;4939722;28;20208;-62
2023/09/20 00:54:08;;;;;;;3.50;3.30;;;;;;;10.81;100.00;96918.44;4938477;28;20293;-63
2023/09/20 00:56:36;;;;;;;3.30;3.00;;;;;;;10.76;100.00;96920.84;4946931;28;20790;-62
2023/09/20 00:59:07;;;;;;;3.70;3.40;;;;;;;10.74;100.00;96920.22;4948150;28;21532;-63
2023/09/20 01:01:35;;;;;;;5.43;4.03;;;;;;;10.71;100.00;96917.94;4949488;28;20214;-61
2023/09/20 01:04:05;;;;;;;3.90;3.70;;;;;;;10.71;100.00;96918.75;4897175;28;22210;-61
2023/09/20 01:06:33;;;;;;;4.30;3.97;;;;;;;10.68;100.00;96913.03;4917711;28;20242;-62
2023/09/20 01:09:02;;;;;;;3.97;3.67;;;;;;;10.65;100.00;96916.06;4938692;28;20199;-63
2023/09/20 01:11:30;;;;;;;4.00;3.80;;;;;;;10.68;100.00;96913.84;4935916;28;20653;-63
2023/09/20 01:13:59;;;;;;;3.57;3.37;;;;;;;10.70;100.00;96922.41;4937170;28;20223;-62
2023/09/20 01:16:28;;;;;;;6.83;4.03;;;;;;;10.73;100.00;96915.91;4938537;28;20227;-61
2023/09/20 01:18:56;;;;;;;4.10;3.90;;;;;;;10.75;100.00;96915.72;4937943;28;20195;-62
2023/09/20 01:21:23;;;;;;;4.37;4.07;;;;;;;10.69;100.00;96910.16;4936748;28;20278;-63
2023/09/20 01:23:52;;;;;;;4.27;3.80;;;;;;;10.67;100.00;96917.50;4936085;28;21127;-61
2023/09/20 01:26:20;;;;;;;4.03;3.80;;;;;;;10.68;100.00;96911.19;4940010;28;20223;-63
2023/09/20 01:28:48;;;;;;;3.63;3.33;;;;;;;10.65;100.00;96913.41;4939714;28;20214;-63
2023/09/20 01:31:16;;;;;;;3.90;3.60;;;;;;;10.61;100.00;96910.31;4934625;28;20238;-62
2023/09/20 01:33:43;;;;;;;4.10;3.80;;;;;;;10.64;100.00;96906.47;4939773;28;20222;-63
2023/09/20 01:36:11;;;;;;;5.00;4.13;;;;;;;10.61;100.00;96904.22;4937983;28;20230;-62
2023/09/20 01:38:39;;;;;;;5.03;4.47;;;;;;;10.67;100.00;96906.09;4933840;28;21069;-61
2023/09/20 01:41:09;;;;;;;4.20;3.80;;;;;;;10.69;100.00;96909.38;4867675;28;20572;-62
2023/09/20 01:43:38;;;;;;;3.77;3.57;;;;;;;10.70;100.00;96906.50;4940762;28;20203;-64
2023/09/20 01:46:08;;;;;;;3.83;3.63;;;;;;;10.70;100.00;96901.22;4935266;28;20317;-59
2023/09/20 01:48:37;;;;;;;4.57;3.97;;;;;;;10.64;100.00;96907.28;4938355;28;20207;-61
2023/09/20 01:51:05;;;;;;;4.37;3.73;;;;;;;10.66;100.00;96905.25;4929012;28;20318;-61
2023/09/20 01:53:33;;;;;;;4.20;3.90;;;;;;;10.62;100.00;96901.34;4939942;28;20215;-63
2023/09/20 01:56:01;;;;;;;4.20;3.90;;;;;;;10.62;100.00;96900.53;4935152;28;20231;-63
2023/09/20 01:58:30;;;;;;;4.63;4.27;;;;;;;10.63;100.00;96895.03;4938902;28;20212;-61
2023/09/20 02:00:58;;;;;;;4.17;3.80;;;;;;;10.62;100.00;96898.69;4936128;28;20219;-61
2023/09/20 02:03:27;;;;;;;4.93;4.50;;;;;;;10.62;100.00;96896.06;4940842;28;20219;-64
2023/09/20 02:05:58;;;;;;;5.70;5.10;;;;;;;10.64;100.00;96888.72;4936799;28;20226;-62
2023/09/20 02:08:26;;;;;;;5.53;5.03;;;;;;;10.65;100.00;96887.72;4934900;28;20207;-61
2023/09/20 02:10:56;;;;;;;5.53;5.13;;;;;;;10.78;100.00;96889.66;4847367;28;20809;-62
2023/09/20 02:13:24;;;;;;;6.23;5.63;;;;;;;10.93;100.00;96900.16;4939526;28;20207;-62
2023/09/20 02:15:54;;;;;;;6.50;6.03;;;;;;;10.98;100.00;96891.63;4933976;28;20227;-60
2023/09/20 02:18:22;;;;;;;6.03;5.53;;;;;;;11.04;100.00;96887.38;4942316;28;20207;-62
2023/09/20 02:20:50;;;;;;;6.23;5.73;;;;;;;11.02;100.00;96894.72;4931818;28;20234;-59
2023/09/20 02:23:18;;;;;;;5.93;5.53;;;;;;;11.04;100.00;96896.16;4940047;28;20219;-61
2023/09/20 02:25:48;;;;;;;5.87;5.27;;;;;;;11.02;100.00;96898.19;4933483;28;20246;-62
2023/09/20 02:28:17;;;;;;;6.30;5.80;;;;;;;11.01;100.00;96899.22;4937832;28;20207;-60
2023/09/20 02:30:45;;;;;;;6.17;5.67;;;;;;;10.96;100.00;96899.78;4931411;28;20250;-62
2023/09/20 02:33:18;;;;;;;5.80;5.40;;;;;;;10.93;100.00;96902.81;4939949;28;21205;-61
2023/09/20 02:35:46;;;;;;;6.00;5.60;;;;;;;10.93;100.00;96913.41;4931895;28;20306;-62
2023/09/20 02:38:13;;;;;;;6.03;5.63;;;;;;;10.75;100.00;96905.13;4940867;28;20195;-61
2023/09/20 02:40:41;;;;;;;6.23;5.67;;;;;;;10.75;100.00;96908.59;4933148;28;20318;-61
2023/09/20 02:43:10;;;;;;;6.90;6.40;;;;;;;10.75;100.00;96905.13;4938739;28;20696;-60
2023/09/20 02:45:39;;;;;;;6.30;5.80;;;;;;;10.77;100.00;96911.88;4848624;28;20321;-61
2023/09/20 02:48:08;;;;;;;5.67;5.20;;;;;;;10.84;100.00;96906.63;4937481;28;20217;-61
2023/09/20 02:50:41;;;;;;;6.07;5.67;;;;;;;10.84;100.00;96912.72;4935478;28;20214;-59
2023/09/20 02:53:09;;;;;;;6.83;6.23;;;;;;;10.84;100.00;96907.44;4938453;28;20210;-62
2023/09/20 02:55:39;;;;;;;6.13;5.60;;;;;;;10.81;100.00;96905.16;4934760;28;20222;-61
2023/09/20 02:58:07;;;;;;;5.63;5.23;;;;;;;10.75;100.00;96907.75;4938811;28;20207;-61
2023/09/20 03:00:38;;;;;;;6.20;5.53;;;;;;;10.69;100.00;96915.47;4933727;28;20226;-60
2023/09/20 03:03:08;;;;;;;5.63;5.23;;;;;;;10.70;100.00;96911.00;4937102;28;20211;-61
2023/09/20 03:05:38;;;;;;;6.47;5.93;;;;;;;10.69;100.00;96912.81;4932249;28;20227;-59
2023/09/20 03:08:11;;;;;;;6.47;5.97;;;;;;;10.71;100.00;96912.66;4936454;28;20207;-62
2023/09/20 03:10:41;;;;;;;7.00;6.43;;;;;;;10.68;100.00;96913.84;4932916;28;20206;-62
2023/09/20 03:13:12;;;;;;;6.47;6.00;;;;;;;10.71;100.00;96907.34;4938651;28;20726;-61
2023/09/20 03:15:43;;;;;;;6.77;6.27;;;;;;;10.80;100.00;96911.47;4815456;28;20390;-61
2023/09/20 03:18:13;;;;;;;7.33;6.73;;;;;;;10.75;100.00;96905.94;4869091;28;20913;-60
2023/09/20 03:20:47;;;;;;;6.23;5.77;;;;;;;10.77;100.00;96911.03;4937248;28;20235;-63
2023/09/20 03:23:15;;;;;;;7.20;6.60;;;;;;;10.76;100.00;96907.59;4934657;28;20203;-60
2023/09/20 03:25:42;;;;;;;6.63;6.20;;;;;;;10.76;100.00;96914.69;4934805;28;20766;-61
2023/09/20 03:28:10;;;;;;;6.70;6.20;;;;;;;10.70;100.00;96911.00;4873842;28;20229;-61
2023/09/20 03:30:39;;;;;;;7.03;6.37;;;;;;;10.65;100.00;96902.81;4937219;28;20218;-61
2023/09/20 03:33:08;;;;;;;6.77;6.27;;;;;;;10.71;100.00;96910.78;4935191;28;20211;-62
2023/09/20 03:35:37;;;;;;;6.87;6.20;;;;;;;10.72;100.00;96914.28;4935718;28;20298;-59
2023/09/20 03:38:08;;;;;;;6.73;6.23;;;;;;;10.71;100.00;96908.16;4883714;28;21052;-60
2023/09/20 03:40:37;;;;;;;6.13;5.63;;;;;;;10.69;100.00;96907.53;4936402;28;20237;-59
2023/09/20 03:43:07;;;;;;;7.17;6.67;;;;;;;10.68;100.00;96903.22;4933614;28;20310;-62
2023/09/20 03:45:35;;;;;;;7.20;6.70;;;;;;;10.65;100.00;96908.09;4936562;28;20234;-61
2023/09/20 03:48:09;;;;;;;8.00;7.27;;;;;;;10.64;100.00;96901.97;4840625;28;21126;-59
2023/09/20 03:50:43;;;;;;;7.63;6.93;;;;;;;10.68;100.00;96905.88;4940358;28;20202;-61
2023/09/20 03:53:13;;;;;;;7.93;7.30;;;;;;;10.68;100.00;96913.03;4933620;28;20822;-62
2023/09/20 03:55:46;;;;;;;8.27;7.37;;;;;;;10.76;100.00;96917.34;4938862;28;20227;-62
2023/09/20 03:58:13;;;;;;;8.00;7.40;;;;;;;10.78;100.00;96902.91;4937486;28;20897;-61
2023/09/20 04:00:44;;;;;;;8.60;7.83;;;;;;;10.84;100.00;96903.97;4938489;28;20254;-60
2023/09/20 04:03:13;;;;;;;8.60;7.87;;;;;;;10.93;100.00;96902.81;4930983;28;20255;-58
2023/09/20 04:05:40;;;;;;;8.37;7.67;;;;;;;10.95;100.00;96906.09;4936932;28;20284;-59
2023/09/20 04:08:16;;;;;;;9.03;8.10;;;;;;;10.95;100.00;96907.91;4935909;28;20207;-62
2023/09/20 04:10:44;;;;;;;8.73;7.93;;;;;;;10.95;100.00;96903.44;4937580;28;20826;-61
2023/09/20 04:13:12;;;;;;;8.47;7.77;;;;;;;11.02;100.00;96900.00;4936484;28;20659;-62
2023/09/20 04:15:42;;;;;;;10.00;8.47;;;;;;;10.90;100.00;96892.59;4942515;28;20804;-61
2023/09/20 04:18:12;;;;;;;9.40;8.70;;;;;;;10.94;100.00;96895.66;4833880;28;20508;-61
2023/09/20 04:20:41;;;;;;;8.63;7.93;;;;;;;10.87;100.00;96895.63;4876480;28;20229;-62
2023/09/20 04:23:09;;;;;;;8.40;7.70;;;;;;;10.94;100.00;96891.19;4939011;28;20204;-63
2023/09/20 04:25:39;;;;;;;9.70;8.90;;;;;;;11.02;100.00;96892.06;4934083;28;20230;-60
2023/09/20 04:28:07;;;;;;;10.90;9.43;;;;;;;10.99;100.00;96898.59;4938537;28;20758;-62
2023/09/20 04:30:38;;;;;;;11.30;10.30;;;;;;;11.06;100.00;96894.13;4939341;28;20278;-62
2023/09/20 04:33:10;;;;;;;10.60;9.60;;;;;;;10.98;100.00;96892.44;4939805;28;20828;-64
2023/09/20 04:35:38;;;;;;;9.03;8.37;;;;;;;10.97;100.00;96892.63;4938485;28;20644;-64
2023/09/20 04:38:05;;;;;;;9.03;8.23;;;;;;;11.00;100.00;96900.22;4939770;28;20294;-63
2023/09/20 04:40:33;;;;;;;8.23;7.63;;;;;;;10.96;100.00;96898.94;4935335;28;20211;-63
2023/09/20 04:43:02;;;;;;;7.40;6.83;;;;;;;11.04;100.00;96890.03;4938656;28;20266;-61
2023/09/20 04:45:30;;;;;;;9.23;8.53;;;;;;;11.02;100.00;96894.72;4941334;28;20595;-61
2023/09/20 04:47:58;;;;;;;8.13;7.43;;;;;;;10.96;100.00;96891.81;4937340;28;20207;-62
2023/09/20 04:50:26;;;;;;;8.27;7.63;;;;;;;10.90;100.00;96884.66;4832531;28;20230;-62
2023/09/20 04:52:54;;;;;;;9.53;8.57;;;;;;;10.82;100.00;96888.25;4938660;28;20211;-62
2023/09/20 04:55:21;;;;;;;7.53;7.03;;;;;;;10.99;100.00;96888.78;4877021;28;20330;-61
2023/09/20 04:57:49;;;;;;;8.30;7.70;;;;;;;11.04;100.00;96898.00;4937024;28;20207;-61
2023/09/20 05:00:20;;;;;;;8.87;8.27;;;;;;;11.04;100.00;96900.63;4937550;28;20298;-62
2023/09/20 05:02:48;;;;;;;8.00;7.40;;;;;;;11.07;100.00;96901.06;4940039;28;20709;-62
2023/09/20 05:05:17;;;;;;;9.87;9.07;;;;;;;11.06;100.00;96901.25;4936177;28;20265;-60
2023/09/20 05:07:45;;;;;;;9.17;8.47;;;;;;;11.01;100.00;96907.16;4939586;28;20203;-62
2023/09/20 05:10:13;;;;;;;8.77;8.17;;;;;;;11.07;100.00;96908.19;4935901;28;20211;-62
2023/09/20 05:12:41;;;;;;;9.13;8.40;;;;;;;11.17;100.00;96918.47;4941924;28;20285;-63
2023/09/20 05:15:12;;;;;;;9.10;8.40;;;;;;;11.21;100.00;96912.59;4937237;28;20206;-61
2023/09/20 05:17:43;;;;;;;17.03;9.77;;;;;;;11.10;100.00;96910.47;4939860;28;20202;-60
2023/09/20 05:20:12;;;;;;;16.50;9.97;;;;;;;11.09;100.00;96914.97;4936434;28;20219;-61
2023/09/20 05:22:41;;;;;;;12.20;9.90;;;;;;;11.13;100.00;96902.13;4943536;28;20282;-60
2023/09/20 05:25:09;;;;;;;15.53;9.13;;;;;;;11.12;100.00;96911.91;4840626;28;20354;-60
2023/09/20 05:27:37;;;;;;;9.80;9.07;;;;;;;11.36;100.00;96914.31;4943574;28;20623;-62
2023/09/20 05:30:06;;;;;;;10.83;9.80;;;;;;;11.38;100.00;96914.91;4935583;28;20328;-61
2023/09/20 05:32:35;;;;;;;10.40;9.60;;;;;;;11.42;100.00;96914.34;4939423;28;20298;-61
2023/09/20 05:35:07;;;;;;;10.60;9.80;;;;;;;11.61;100.00;96919.94;4934939;28;20696;-60
2023/09/20 05:37:38;;;;;;;11.13;10.13;;;;;;;11.69;100.00;96919.75;4942151;28;20218;-61
2023/09/20 05:40:13;;;;;;;15.50;10.93;;;;;;;11.68;100.00;96923.44;4936254;28;20203;-60
2023/09/20 05:42:41;;;;;;;11.57;10.67;;;;;;;11.79;100.00;96923.91;4941883;28;20290;-60
2023/09/20 05:45:09;;;;;;;12.73;11.63;;;;;;;11.97;100.00;96926.00;4936003;28;20214;-60
2023/09/20 05:47:37;;;;;;;13.70;12.57;;;;;;;12.11;100.00;96926.88;4940863;28;20210;-59
2023/09/20 05:50:10;;;;;;;12.77;11.53;;;;;;;12.24;100.00;96928.75;4934061;28;20215;-62
2023/09/20 05:52:40;;;;;;;13.50;12.20;;;;;;;12.05;100.00;96938.31;4938924;28;20211;-60
2023/09/20 05:55:11;;;;;;;14.23;12.73;;;;;;;12.30;100.00;96933.25;4835857;28;20218;-60
2023/09/20 05:57:39;;;;;;;14.00;12.70;;;;;;;12.38;100.00;96932.25;4939996;28;20659;-61
2023/09/20 06:00:12;;;;;;;14.43;13.00;;;;;;;12.48;100.00;96934.53;4935572;28;20683;-62
2023/09/20 06:02:42;;;;;;;13.97;12.77;;;;;;;12.42;100.00;96936.97;4940379;28;20231;-60
2023/09/20 06:05:12;;;;;;;14.83;13.53;;;;;;;12.41;100.00;96932.69;4935532;28;20307;-62
2023/09/20 06:07:40;;;;;;;15.53;14.23;;;;;;;12.48;100.00;96942.50;4940606;28;20211;-62
2023/09/20 06:10:08;;;;;;;15.50;14.10;;;;;;;12.49;100.00;96938.81;4934011;28;20300;-59
2023/09/20 06:12:36;;;;;;;14.43;13.13;;;;;;;12.58;100.00;96938.44;4941190;28;20254;-61
2023/09/20 06:15:07;;;;;;;15.10;13.70;;;;;;;12.59;100.00;96929.44;4934962;28;20285;-64
2023/09/20 06:17:36;;;;;;;16.43;14.90;;;;;;;12.63;100.00;96937.81;4939598;28;20203;-61
2023/09/20 06:20:08;;;;;;;16.33;14.93;;;;;;;12.65;100.00;96933.13;4933588;28;20472;-61
2023/09/20 06:22:38;;;;;;;16.20;14.70;;;;;;;12.68;100.00;96931.91;4941057;28;20215;-62
2023/09/20 06:25:06;;;;;;;15.80;14.40;;;;;;;12.76;100.00;96933.53;4935644;28;20225;-63
2023/09/20 06:27:34;;;;;;;15.80;14.40;;;;;;;12.81;100.00;96936.41;4942088;28;20262;-62
2023/09/20 06:30:06;;;;;;;17.20;15.80;;;;;;;12.91;100.00;96918.19;4842141;28;20215;-63
2023/09/20 06:32:34;;;;;;;16.87;15.37;;;;;;;12.96;100.00;96917.59;4937665;28;20688;-62
2023/09/20 06:35:03;;;;;;;16.63;15.23;;;;;;;13.10;100.00;96918.41;4933937;28;20211;-62
2023/09/20 06:37:31;;;;;;;17.83;16.23;;;;;;;13.19;100.00;96911.84;4937605;28;20231;-62
2023/09/20 06:40:00;;;;;;;16.77;15.27;;;;;;;13.18;100.00;96918.97;4936222;28;20286;-63
2023/09/20 06:42:29;;;;;;;17.80;16.20;;;;;;;13.28;100.00;96913.25;4939737;28;20286;-60
2023/09/20 06:44:57;;;;;;;16.47;14.87;;;;;;;13.37;100.00;96907.69;4937085;28;20215;-62
2023/09/20 06:47:25;;;;;;;16.53;15.03;;;;;;;13.23;100.00;96912.22;4937331;28;20235;-63
2023/09/20 06:49:53;;;;;;;16.07;14.77;;;;;;;13.35;100.00;96912.41;4935549;28;20211;-63
2023/09/20 06:52:20;;;;;;;16.90;15.40;;;;;;;13.06;100.00;96895.88;4938555;28;20202;-63
2023/09/20 06:54:48;;;;;;;15.50;14.20;;;;;;;13.09;100.00;96898.94;4936916;28;20223;-63
2023/09/20 06:57:18;;;;;;;15.97;14.47;;;;;;;13.11;100.00;96909.41;4935367;28;20227;-62
2023/09/20 06:59:46;;;;;;;16.40;15.00;;;;;;;13.12;100.00;96911.03;4935449;28;20298;-62
2023/09/20 07:02:16;;;;;;;14.87;13.67;;;;;;;13.22;100.00;96918.56;4937463;28;20274;-63
2023/09/20 07:04:44;;;;;;;15.23;13.97;;;;;;;13.17;100.00;96921.88;4832320;28;20226;-63
2023/09/20 07:07:12;;;;;;;16.70;15.23;;;;;;;13.19;100.00;96917.16;4936544;28;20230;-63
2023/09/20 07:09:40;;;;;;;16.03;14.73;;;;;;;13.37;100.00;96921.00;4937570;28;20199;-62
2023/09/20 07:12:10;;;;;;;17.23;15.83;;;;;;;13.35;100.00;96920.38;4938913;28;20742;-63
2023/09/20 07:14:39;;;;;;;16.37;14.97;;;;;;;13.59;100.00;96901.13;4938332;28;20236;-63
2023/09/20 07:17:07;;;;;;;16.60;15.20;;;;;;;13.75;100.00;96914.97;4936227;28;20239;-63
2023/09/20 07:19:37;;;;;;;17.00;15.47;;;;;;;14.08;100.00;96908.69;4938488;28;20874;-61
2023/09/20 07:22:05;;;;;;;17.17;15.57;;;;;;;14.31;100.00;96912.66;4936159;28;20224;-61
2023/09/20 07:24:35;;;;;;;16.67;15.27;;;;;;;14.50;100.00;96912.72;4937875;28;20305;-63
2023/09/20 07:27:03;;;;;;;17.53;16.13;;;;;;;14.40;100.00;96911.38;4938985;28;20241;-63
2023/09/20 07:29:36;;;;;;;16.13;14.83;;;;;;;14.42;100.00;96909.31;4938694;28;20663;-62
2023/09/20 07:32:06;;;;;;;17.07;15.40;;;;;;;14.58;100.00;96899.13;4938004;28;20286;-62
2023/09/20 07:34:34;;;;;;;15.93;14.73;;;;;;;14.83;100.00;96912.53;4935956;28;20591;-62
2023/09/20 07:37:02;;;;;;;15.97;14.70;;;;;;;14.81;100.00;96909.28;4938727;28;20231;-62
2023/09/20 07:39:31;;;;;;;14.77;13.67;;;;;;;14.83;100.00;96911.69;4831890;28;20211;-62
2023/09/20 07:41:58;;;;;;;15.77;14.40;;;;;;;14.97;100.00;96896.41;4940489;28;20215;-62
2023/09/20 07:44:30;;;;;;;16.27;14.77;;;;;;;15.03;100.00;96899.03;4933900;28;20241;-62
2023/09/20 07:46:58;;;;;;;14.73;13.63;;;;;;;15.08;100.00;96902.88;4938416;28;20230;-60
2023/09/20 07:49:28;;;;;;;15.17;13.87;;;;;;;15.05;100.00;96896.94;4933787;28;20693;-62
2023/09/20 07:51:55;;;;;;;15.10;13.97;;;;;;;15.16;100.00;96891.91;4939951;28;20663;-62
2023/09/20 07:54:23;;;;;;;14.87;13.63;;;;;;;15.58;100.00;96889.41;4933937;28;21567;-62
2023/09/20 07:56:52;;;;;;;15.80;14.60;;;;;;;15.65;100.00;96891.19;4935151;28;20218;-63
2023/09/20 07:59:23;;;;;;;15.40;14.17;;;;;;;15.83;100.00;96891.19;4930830;28;20206;-58
2023/09/20 08:01:52;;;;;;;14.43;13.33;;;;;;;15.89;100.00;96884.97;4939888;28;20214;-61
2023/09/20 08:04:21;;;;;;;14.10;13.00;;;;;;;16.08;100.00;96892.91;4933651;28;20703;-61
2023/09/20 08:06:51;;;;;;;14.40;13.30;;;;;;;16.37;100.00;96885.13;4939919;28;20369;-62
2023/09/20 08:09:18;;;;;;;13.83;12.63;;;;;;;16.30;100.00;96885.25;4832366;28;20254;-61
2023/09/20 08:11:46;;;;;;;13.70;12.60;;;;;;;16.55;100.00;96875.41;4940357;28;20298;-62
2023/09/20 08:14:14;;;;;;;11.80;10.90;;;;;;;16.51;100.00;96872.38;4933932;28;20290;-61
2023/09/20 08:16:42;;;;;;;13.73;12.30;;;;;;;16.67;100.00;96876.22;4941123;28;20234;-61
2023/09/20 08:19:31;;;;;;;13.40;12.40;;;;;;;16.53;100.00;96872.16;4935992;28;20671;-61
2023/09/20 08:22:00;;;;;;;13.07;12.17;;;;;;;16.53;100.00;96872.16;4937191;28;20285;-64
2023/09/20 09:00:31;;;;;;;7.30;6.77;;;;;;;17.86;100.00;96840.50;4934131;28;20821;-62
2023/09/20 09:03:03;;;;;;;6.90;6.37;;;;;;;17.86;100.00;96843.97;4941893;28;20253;-62
2023/09/20 09:05:32;;;;;;;6.07;5.67;;;;;;;17.97;100.00;96834.25;4935604;28;20235;-62
2023/09/20 09:08:02;;;;;;;8.80;7.00;;;;;;;17.88;100.00;96833.03;4942664;28;20281;-62
2023/09/20 09:10:31;;;;;;;6.23;5.77;;;;;;;18.08;100.00;96832.63;4844603;28;20219;-63
2023/09/20 09:12:59;;;;;;;6.37;5.77;;;;;;;18.09;100.00;96823.53;4944044;28;20214;-62
2023/09/20 09:15:27;;;;;;;5.47;5.03;;;;;;;18.28;100.00;96820.59;4935549;28;20294;-62
2023/09/20 09:17:56;;;;;;;7.07;6.00;;;;;;;18.23;100.00;96822.16;4942513;28;20210;-61
2023/09/20 09:20:26;;;;;;;6.03;5.53;;;;;;;18.47;100.00;96819.34;4938979;28;20211;-61
2023/09/20 09:22:53;;;;;;;5.77;5.37;;;;;;;18.38;100.00;96815.44;4942613;28;20210;-61
2023/09/20 09:25:29;;;;;;;6.03;5.53;;;;;;;18.47;100.00;96813.97;4935757;28;20222;-61
2023/09/20 09:27:58;;;;;;;6.13;5.63;;;;;;;18.72;100.00;96807.34;4942073;28;20744;-62
2023/09/20 09:30:26;;;;;;;6.63;6.13;;;;;;;18.51;100.00;96808.91;4935187;28;20299;-62
2023/09/20 09:32:53;;;;;;;7.37;6.43;;;;;;;18.36;100.00;96807.63;4941475;28;20211;-61
2023/09/20 09:35:21;;;;;;;5.97;5.57;;;;;;;18.55;100.00;96795.84;4933965;28;20694;-62
2023/09/20 09:38:07;;;;;;;5.90;5.50;;;;;;;18.66;100.00;96794.91;4940658;28;20222;-62
2023/09/20 09:40:51;;;;;;;5.20;4.90;;;;;;;18.74;100.00;96796.38;4937252;28;20698;-62
2023/09/20 09:43:26;;;;;;;4.93;4.60;;;;;;;18.72;100.00;96785.09;4907886;28;20207;-59
2023/09/20 09:45:55;;;;;;;5.10;4.70;;;;;;;18.77;100.00;96795.88;4882070;28;20741;-63
2023/09/20 09:48:25;;;;;;;5.00;4.37;;;;;;;19.04;100.00;96787.97;4939797;28;20205;-62
2023/09/20 09:50:54;;;;;;;3.77;3.47;;;;;;;19.14;100.00;96789.19;4936378;28;20298;-62
2023/09/20 09:53:22;;;;;;;4.77;4.47;;;;;;;19.17;100.00;96777.94;4937197;28;20474;-62
2023/09/20 09:55:50;;;;;;;5.03;4.03;;;;;;;19.17;100.00;96776.06;4938494;28;20226;-62
2023/09/20 09:58:19;;;;;;;5.03;4.53;;;;;;;19.32;100.00;96775.44;4940370;28;20262;-60
2023/09/20 10:00:49;;;;;;;4.63;3.50;;;;;;;19.32;100.00;96772.75;4939160;28;20950;-61
2023/09/20 10:03:27;;;;;;;4.03;3.70;;;;;;;19.37;100.00;96772.00;4937480;28;20239;-60
2023/09/20 10:06:04;;;;;;;4.10;3.70;;;;;;;19.42;100.00;96772.06;4938809;28;20234;-62
2023/09/20 10:08:34;;;;;;;3.50;3.30;;;;;;;19.60;100.00;96764.72;4935776;28;20211;-62
2023/09/20 10:11:02;;;;;;;3.17;2.83;;;;;;;19.63;100.00;96766.91;4938924;28;20649;-61
2023/09/20 10:13:31;;;;;;;2.93;2.80;;;;;;;19.70;100.00;96764.84;4937858;28;20695;-64
2023/09/20 10:16:00;;;;;;;3.60;3.27;;;;;;;19.75;100.00;96759.53;4939829;28;20258;-63
2023/09/20 10:18:37;;;;;;;2.87;2.67;;;;;;;19.74;100.00;96765.97;4888593;28;20225;-58
2023/09/20 10:21:10;;;;;;;2.50;2.40;;;;;;;19.97;100.00;96764.03;4912193;28;20230;-62
2023/09/20 10:23:38;;;;;;;2.80;2.60;;;;;;;20.01;100.00;96770.53;4939323;28;20842;-63
2023/09/20 10:26:13;;;;;;;2.63;2.43;;;;;;;20.15;100.00;96765.53;4941922;28;20541;-62
2023/09/20 10:28:45;;;;;;;2.10;2.00;;;;;;;20.18;100.00;96759.66;4934932;28;20262;-61
2023/09/20 10:31:15;;;;;;;3.93;2.40;;;;;;;20.18;100.00;96769.63;4942835;28;20316;-61
2023/09/20 10:33:47;;;;;;;1.87;1.70;;;;;;;20.06;100.00;96756.31;4936557;28;20203;-62
2023/09/20 10:36:19;;;;;;;1.93;1.83;;;;;;;20.09;100.00;96747.75;4940076;28;20337;-61
2023/09/20 10:38:47;;;;;;;2.23;1.80;;;;;;;20.11;100.00;96764.44;4937249;28;20215;-62
2023/09/20 10:41:16;;;;;;;2.93;1.80;;;;;;;20.10;100.00;96752.88;4941394;28;20203;-59
2023/09/20 10:43:46;;;;;;;1.60;1.50;;;;;;;20.17;100.00;96758.03;4937792;28;20635;-63
2023/09/20 10:46:18;;;;;;;2.40;2.20;;;;;;;20.28;100.00;96752.75;4940632;28;20334;-63
2023/09/20 10:48:51;;;;;;;2.10;2.00;;;;;;;20.31;100.00;96722.66;4868128;28;21473;-57
2023/09/20 10:51:48;;;;;;;2.10;1.70;;;;;;;20.45;100.00;96742.66;4940383;28;20203;-60
2023/09/20 10:54:25;;;;;;;2.60;1.90;;;;;;;20.58;100.00;96736.00;4936084;28;20206;-60
2023/09/20 10:57:11;;;;;;;2.87;2.20;;;;;;;20.67;100.00;96725.56;4939197;28;20226;-61
2023/09/20 10:59:43;;;;;;;2.30;1.83;;;;;;;20.78;100.00;96729.09;4934715;28;20218;-60
2023/09/20 11:02:13;;;;;;;2.20;1.53;;;;;;;20.84;100.00;96732.66;4940256;28;20214;-61
2023/09/20 11:04:41;;;;;;;2.17;2.07;;;;;;;20.83;100.00;96737.22;4933190;28;20626;-61
2023/09/20 11:07:09;;;;;;;1.90;1.80;;;;;;;20.82;100.00;96728.38;4938842;28;20223;-62
2023/09/20 11:09:38;;;;;;;1.90;1.80;;;;;;;20.85;98.40;96739.69;4934408;28;20202;-63
2023/09/20 11:12:07;;;;;;;3.03;2.77;;;;;;;20.85;100.00;96729.72;4937620;28;20208;-63
2023/09/20 11:14:36;;;;;;;2.17;2.07;;;;;;;20.84;100.00;96711.13;4936677;28;20217;-62
2023/09/20 11:17:09;;;;;;;2.07;1.97;;;;;;;21.00;100.00;96712.03;4936943;28;20231;-62
2023/09/20 11:19:39;;;;;;;2.13;1.93;;;;;;;21.08;100.00;96711.50;4935181;28;20346;-62
2023/09/20 11:22:06;;;;;;;2.30;2.20;;;;;;;21.12;100.00;96704.50;4940607;28;20215;-63
2023/09/20 11:24:37;;;;;;;2.87;2.30;;;;;;;21.11;100.00;96705.59;4823355;28;20371;-62
2023/09/20 11:27:05;;;;;;;2.37;2.10;;;;;;;21.16;100.00;96702.91;4940359;28;20338;-62
2023/09/20 11:29:36;;;;;;;1.80;1.70;;;;;;;21.25;100.00;96700.53;4935017;28;20203;-62
2023/09/20 11:32:11;;;;;;;2.07;1.97;;;;;;;21.28;100.00;96697.28;4939269;28;20243;-62
2023/09/20 11:34:43;;;;;;;3.67;2.30;;;;;;;21.29;100.00;96690.84;4932214;28;20265;-62
2023/09/20 11:37:15;;;;;;;3.17;2.17;;;;;;;21.33;100.00;96689.22;4938431;28;20293;-61
2023/09/20 11:39:44;;;;;;;2.30;2.13;;;;;;;21.57;100.00;96685.22;4936490;28;20211;-62
2023/09/20 11:42:23;;;;;;;2.13;2.03;;;;;;;21.55;100.00;96685.50;4936754;28;20419;-62
2023/09/20 11:44:58;;;;;;;4.70;2.17;;;;;;;21.52;100.00;96681.44;4936923;28;20301;-60
2023/09/20 11:47:47;;;;;;;2.10;1.73;;;;;;;21.59;100.00;96678.50;4935346;28;22188;-61
2023/09/20 11:50:15;;;;;;;2.03;1.93;;;;;;;21.68;100.00;96685.00;4937190;28;20631;-63
2023/09/20 11:52:45;;;;;;;4.30;2.13;;;;;;;21.77;100.00;96676.38;4936425;28;20206;-60
2023/09/20 11:55:13;;;;;;;1.70;1.60;;;;;;;21.71;100.00;96674.75;4937439;28;20222;-63
2023/09/20 11:57:42;;;;;;;1.80;1.70;;;;;;;21.79;100.00;96674.25;4939149;28;20210;-63
2023/09/20 12:00:16;;;;;;;1.80;1.70;;;;;;;21.92;100.00;96665.63;4854309;28;20230;-63
2023/09/20 12:02:44;;;;;;;2.00;1.90;;;;;;;22.11;100.00;96662.34;4936298;28;20199;-61
2023/09/20 12:05:14;;;;;;;2.70;2.50;;;;;;;22.21;100.00;96662.34;4937545;28;20300;-62
2023/09/20 12:07:53;;;;;;;1.77;1.67;;;;;;;22.26;100.00;96654.25;4936963;28;20207;-62
2023/09/20 12:10:20;;;;;;;2.27;2.10;;;;;;;22.31;99.16;96649.94;4934182;28;20203;-62